Time;durP1;ratioP1;P1;durP2;ratioP2;P2;SDS_P1;SDS_P2;PMS_P1;PMS_P2;Temp;Humidity;BMP_temperature;BMP_pressure;BME280_temperature;BME280_humidity;BME280_pressure;Samples;Min_cycle;Max_cycle;Signal;HPM_P1;HPM_P2
2022/10/17 00:01:52;;;;;;;21.35;9.70;;;;;;;10.41;64.87;101289.84;5071878;28;20059;-69
2022/10/17 00:04:17;;;;;;;24.73;10.02;;;;;;;10.52;65.11;101302.22;5074689;28;20331;-72
2022/10/17 00:06:43;;;;;;;20.98;9.75;;;;;;;10.52;64.57;101294.28;5073805;28;20039;-69
2022/10/17 00:09:08;;;;;;;18.48;9.07;;;;;;;10.47;64.95;101286.69;5074477;28;20201;-71
2022/10/17 00:11:34;;;;;;;23.38;10.45;;;;;;;10.51;64.92;101300.53;5072435;28;20072;-69
2022/10/17 00:14:01;;;;;;;20.42;10.13;;;;;;;10.61;64.74;101290.88;5072078;28;20061;-72
2022/10/17 00:16:33;;;;;;;23.50;11.68;;;;;;;10.64;66.04;101290.63;5072849;28;20220;-68
2022/10/17 00:18:59;;;;;;;171.07;56.28;;;;;;;10.70;66.08;101284.00;5071584;28;20035;-69
2022/10/17 00:21:25;;;;;;;113.32;41.10;;;;;;;10.62;65.87;101281.13;5074440;28;20365;-69
2022/10/17 00:23:51;;;;;;;89.95;34.28;;;;;;;10.71;66.01;101291.81;5073238;28;20029;-69
2022/10/17 00:26:18;;;;;;;132.60;43.40;;;;;;;10.74;65.98;101286.25;5069830;28;20035;-70
2022/10/17 00:28:51;;;;;;;86.30;31.25;;;;;;;10.64;64.14;101290.63;5073192;28;20040;-69
2022/10/17 00:31:18;;;;;;;43.08;16.42;;;;;;;10.59;64.53;101289.31;5073902;28;20028;-71
2022/10/17 00:33:44;;;;;;;92.97;29.70;;;;;;;10.47;65.70;101288.50;5072351;28;20041;-71
2022/10/17 00:36:16;;;;;;;61.00;21.92;;;;;;;10.44;63.39;101283.47;5071318;28;20150;-71
2022/10/17 00:38:43;;;;;;;35.10;13.50;;;;;;;10.29;61.99;101287.31;5074724;28;20044;-71
2022/10/17 00:41:12;;;;;;;31.73;12.93;;;;;;;10.09;63.11;101288.84;5077713;28;20235;-71
2022/10/17 00:43:59;;;;;;;33.90;13.50;;;;;;;10.14;66.01;101302.56;5073385;28;20218;-68
2022/10/17 00:46:32;;;;;;;25.13;11.95;;;;;;;10.13;67.18;101306.19;5070464;28;20062;-69
2022/10/17 00:49:03;;;;;;;29.03;12.43;;;;;;;10.18;66.40;101309.31;5072561;28;20043;-72
2022/10/17 00:51:49;;;;;;;37.65;14.52;;;;;;;10.16;66.44;101304.13;5072379;28;20032;-68
2022/10/17 00:54:19;;;;;;;31.15;14.23;;;;;;;10.07;67.53;101302.22;5074044;28;20020;-69
2022/10/17 00:56:46;;;;;;;25.75;13.20;;;;;;;9.98;68.63;101299.44;5075439;28;20031;-70
2022/10/17 00:59:14;;;;;;;26.80;13.15;;;;;;;9.96;68.55;101299.56;5073415;28;20021;-68
2022/10/17 01:01:42;;;;;;;30.38;13.10;;;;;;;10.11;68.33;101305.47;5074293;28;20028;-71
2022/10/17 01:04:08;;;;;;;38.97;15.80;;;;;;;10.10;67.23;101301.97;5072825;28;21005;-68
2022/10/17 01:06:34;;;;;;;34.90;15.07;;;;;;;10.14;67.15;101299.94;5072801;28;20096;-69
2022/10/17 01:08:59;;;;;;;91.18;27.23;;;;;;;10.02;68.06;101301.75;5074370;28;20032;-69
2022/10/17 01:11:42;;;;;;;115.00;36.78;;;;;;;10.11;68.21;101300.16;5071105;28;20095;-72
2022/10/17 01:14:42;;;;;;;42.72;15.93;;;;;;;10.21;68.41;101304.66;5070354;28;20067;-69
2022/10/17 01:17:07;;;;;;;47.60;17.52;;;;;;;10.18;64.93;101304.84;5073638;28;20241;-69
2022/10/17 01:20:07;;;;;;;33.58;14.80;;;;;;;10.03;65.14;101295.47;5072393;28;20053;-69
2022/10/17 01:22:36;;;;;;;27.20;12.95;;;;;;;9.73;65.19;101287.28;5074595;28;20047;-68
2022/10/17 01:25:23;;;;;;;28.45;14.80;;;;;;;9.81;67.85;101306.91;5073087;28;20033;-69
2022/10/17 01:28:11;;;;;;;34.10;16.10;;;;;;;9.88;67.58;101310.75;5073017;28;20068;-69
2022/10/17 01:30:59;;;;;;;37.05;17.35;;;;;;;9.83;67.04;101312.91;5073895;28;20036;-71
2022/10/17 01:33:46;;;;;;;25.33;13.10;;;;;;;9.76;65.80;101314.34;5077783;28;20056;-68
2022/10/17 01:36:32;;;;;;;25.95;12.60;;;;;;;9.78;64.72;101309.78;5081080;28;20237;-68
2022/10/17 01:39:32;;;;;;;20.67;12.75;;;;;;;9.72;67.95;101312.91;5084056;28;20029;-69
2022/10/17 01:42:12;;;;;;;28.52;12.80;;;;;;;9.82;67.54;101311.22;5081710;28;20119;-72
2022/10/17 01:45:06;;;;;;;28.90;12.30;;;;;;;9.88;67.10;101307.25;5084201;28;20036;-69
2022/10/17 01:47:33;;;;;;;95.38;26.65;;;;;;;9.77;63.67;101309.91;5085176;28;20047;-68
2022/10/17 01:50:14;;;;;;;50.75;17.85;;;;;;;9.42;65.11;101308.16;5084934;28;20040;-69
2022/10/17 01:52:46;;;;;;;49.88;17.35;;;;;;;9.30;67.24;101314.34;5085233;28;20251;-68
2022/10/17 01:55:17;;;;;;;37.00;15.98;;;;;;;9.32;67.95;101307.16;5084383;28;20032;-71
2022/10/17 01:57:49;;;;;;;33.53;15.98;;;;;;;9.39;68.04;101308.41;5084639;28;20125;-73
2022/10/17 02:00:21;;;;;;;28.25;12.20;;;;;;;9.42;66.70;101316.09;5084312;28;20029;-68
2022/10/17 02:02:50;;;;;;;27.05;12.07;;;;;;;9.35;64.85;101314.00;5084718;28;20039;-68
2022/10/17 02:05:20;;;;;;;24.15;12.90;;;;;;;9.38;67.66;101325.22;5084898;28;20032;-71
2022/10/17 02:07:46;;;;;;;23.25;12.13;;;;;;;9.51;67.25;101323.31;5084719;28;20034;-68
2022/10/17 02:10:24;;;;;;;24.65;12.07;;;;;;;9.52;67.09;101322.38;5084131;28;20060;-71
2022/10/17 02:13:16;;;;;;;20.02;11.50;;;;;;;9.50;67.44;101302.28;5084683;28;20063;-71
2022/10/17 02:15:44;;;;;;;25.05;13.88;;;;;;;9.48;67.99;101328.84;5083655;28;20028;-71
2022/10/17 02:18:30;;;;;;;31.80;15.50;;;;;;;9.51;67.76;101328.63;5084442;28;20576;-71
2022/10/17 02:21:50;;;;;;;29.55;16.65;;;;;;;9.51;68.33;101317.19;5083927;28;20059;-69
2022/10/17 02:24:29;;;;;;;66.85;25.60;;;;;;;9.52;68.83;101332.94;5042200;28;20045;-69
2022/10/17 02:27:13;;;;;;;63.88;22.27;;;;;;;9.54;68.20;101341.59;5071689;28;20048;-72
2022/10/17 02:29:52;;;;;;;29.65;14.38;;;;;;;9.35;64.68;101337.78;5077223;28;20047;-71
2022/10/17 02:32:34;;;;;;;25.38;14.10;;;;;;;9.20;64.57;101339.78;5075346;28;20052;-71
2022/10/17 02:35:02;;;;;;;32.75;13.95;;;;;;;8.99;62.95;101349.28;5076204;28;20044;-71
2022/10/17 02:37:29;;;;;;;32.97;15.30;;;;;;;8.83;64.73;101360.13;5075917;28;20322;-71
2022/10/17 02:39:58;;;;;;;31.05;15.20;;;;;;;8.69;64.72;101358.50;5077157;28;20048;-72
2022/10/17 02:42:25;;;;;;;28.40;15.32;;;;;;;8.69;66.30;101365.56;5076686;28;20341;-68
2022/10/17 02:44:53;;;;;;;32.45;16.65;;;;;;;8.60;67.83;101367.09;5076419;28;20028;-68
2022/10/17 02:47:26;;;;;;;27.25;15.65;;;;;;;8.72;67.66;101366.19;5077104;28;20033;-71
2022/10/17 02:49:54;;;;;;;32.10;16.97;;;;;;;8.84;67.84;101354.75;5075321;28;20036;-71
2022/10/17 02:52:55;;;;;;;43.67;18.25;;;;;;;8.96;68.08;101363.56;5078025;28;20331;-69
2022/10/17 02:55:21;;;;;;;93.05;31.55;;;;;;;8.98;67.88;101366.09;5064427;28;20048;-71
2022/10/17 02:57:53;;;;;;;188.38;53.13;;;;;;;8.93;67.24;101359.34;5075418;28;20146;-72
2022/10/17 03:00:21;;;;;;;88.90;27.15;;;;;;;8.86;66.84;101371.31;5078108;28;20033;-71
2022/10/17 03:02:49;;;;;;;94.15;28.58;;;;;;;8.91;68.30;101373.63;5077859;28;20032;-68
2022/10/17 03:05:26;;;;;;;67.13;22.65;;;;;;;9.08;68.90;101377.69;5076136;28;20215;-69
2022/10/17 03:07:53;;;;;;;55.75;20.05;;;;;;;9.18;69.16;101384.81;5076529;28;20106;-71
2022/10/17 03:10:19;;;;;;;38.53;18.52;;;;;;;9.10;68.88;101371.34;5076640;28;20150;-71
2022/10/17 03:12:44;;;;;;;42.42;18.08;;;;;;;8.94;64.24;101368.97;5073321;28;20036;-69
2022/10/17 03:15:11;;;;;;;42.85;17.38;;;;;;;8.64;65.56;101365.91;5076767;28;20021;-70
2022/10/17 03:17:37;;;;;;;39.42;15.95;;;;;;;8.55;66.98;101371.84;5076849;28;20036;-72
2022/10/17 03:20:03;;;;;;;36.70;16.90;;;;;;;8.70;69.43;101372.56;5076905;28;20360;-69
2022/10/17 03:22:29;;;;;;;33.63;17.63;;;;;;;8.61;71.53;101363.50;5077347;28;20082;-72
2022/10/17 03:24:54;;;;;;;29.55;16.35;;;;;;;8.51;73.49;101358.03;5072077;28;20036;-72
2022/10/17 03:27:20;;;;;;;37.33;15.25;;;;;;;8.55;74.11;101353.38;5074364;28;20234;-72
2022/10/17 03:29:46;;;;;;;25.88;15.60;;;;;;;8.54;75.28;101371.00;5071495;28;20310;-72
2022/10/17 03:32:11;;;;;;;30.63;15.23;;;;;;;8.52;75.71;101369.44;5075977;28;20033;-73
2022/10/17 03:34:37;;;;;;;31.02;14.90;;;;;;;8.60;74.78;101369.72;5075326;28;20044;-73
2022/10/17 03:37:02;;;;;;;32.42;14.98;;;;;;;8.61;74.99;101366.13;5074459;28;20041;-73
2022/10/17 03:39:28;;;;;;;33.58;13.65;;;;;;;8.72;74.24;101363.56;5072844;28;20233;-73
2022/10/17 03:41:53;;;;;;;24.92;14.10;;;;;;;8.59;74.22;101357.47;5072440;28;20041;-72
2022/10/17 03:44:19;;;;;;;29.30;14.90;;;;;;;8.52;74.90;101361.50;5068324;28;20336;-69
2022/10/17 03:46:44;;;;;;;23.70;14.35;;;;;;;8.50;74.62;101369.53;5069685;28;20048;-71
2022/10/17 03:49:10;;;;;;;23.00;15.02;;;;;;;8.49;74.41;101374.94;5066983;28;20036;-69
2022/10/17 03:51:36;;;;;;;36.63;14.73;;;;;;;8.56;74.08;101378.81;5072229;28;20029;-69
2022/10/17 03:54:02;;;;;;;33.65;15.85;;;;;;;8.84;72.48;101380.31;5075584;28;20037;-72
2022/10/17 03:56:27;;;;;;;26.10;15.05;;;;;;;8.37;73.04;101376.63;5076828;28;20177;-70
2022/10/17 03:58:54;;;;;;;26.73;15.27;;;;;;;8.35;73.57;101367.13;5070471;28;20032;-69
2022/10/17 04:01:19;;;;;;;29.42;15.93;;;;;;;8.43;73.94;101373.56;5067675;28;20032;-70
2022/10/17 04:03:53;;;;;;;32.67;14.90;;;;;;;8.67;72.78;101378.06;5076352;28;20226;-72
2022/10/17 04:06:18;;;;;;;26.75;13.88;;;;;;;8.74;71.42;101380.13;5076970;28;20039;-73
2022/10/17 04:08:44;;;;;;;29.63;13.55;;;;;;;8.81;70.50;101385.81;5073863;28;20218;-72
2022/10/17 04:11:15;;;;;;;29.58;13.95;;;;;;;8.71;70.44;101387.44;5075894;28;20259;-70
2022/10/17 04:13:41;;;;;;;29.83;14.32;;;;;;;8.46;72.68;101385.72;5079129;28;20024;-69
2022/10/17 04:16:11;;;;;;;25.55;15.07;;;;;;;8.46;73.22;101383.06;5081999;28;20040;-70
2022/10/17 04:18:37;;;;;;;37.72;17.70;;;;;;;8.35;73.15;101367.97;5081016;28;20028;-70
2022/10/17 04:21:05;;;;;;;70.57;26.05;;;;;;;8.56;73.16;101379.66;5081779;28;20047;-72
2022/10/17 04:23:31;;;;;;;43.65;21.63;;;;;;;8.62;72.71;101384.50;5082166;28;20314;-72
2022/10/17 04:25:58;;;;;;;86.78;35.85;;;;;;;8.72;72.67;101391.78;5080387;28;20040;-72
2022/10/17 04:28:25;;;;;;;66.85;36.13;;;;;;;8.35;73.19;101388.25;5081405;28;20033;-72
2022/10/17 04:30:57;;;;;;;58.63;26.65;;;;;;;8.48;72.94;101387.28;5081696;28;20051;-70
2022/10/17 04:33:23;;;;;;;33.03;18.73;;;;;;;8.57;72.80;101399.00;5091608;28;20178;-70
2022/10/17 04:35:59;;;;;;;25.95;12.63;;;;;;;8.72;71.45;101410.25;5086172;28;20102;-72
2022/10/17 04:38:26;;;;;;;24.92;13.48;;;;;;;8.67;67.98;101415.88;5080679;28;20074;-72
2022/10/17 04:40:52;;;;;;;31.83;13.95;;;;;;;8.32;67.39;101419.16;5080378;28;20047;-72
2022/10/17 04:43:18;;;;;;;31.17;13.98;;;;;;;8.21;69.81;101415.53;5081863;28;20036;-73
2022/10/17 04:45:44;;;;;;;31.13;14.27;;;;;;;8.31;69.94;101425.34;5082120;28;20117;-72
2022/10/17 04:48:09;;;;;;;27.30;13.73;;;;;;;8.39;70.18;101430.16;5082243;28;20245;-70
2022/10/17 04:50:35;;;;;;;47.20;15.70;;;;;;;8.48;69.86;101436.59;5081731;28;20195;-70
2022/10/17 04:53:00;;;;;;;258.02;62.28;;;;;;;8.61;69.68;101445.34;5081623;28;20314;-72
2022/10/17 04:55:26;;;;;;;200.68;50.33;;;;;;;8.58;70.30;101437.63;5081804;28;20298;-71
2022/10/17 04:57:51;;;;;;;97.07;25.48;;;;;;;8.66;69.83;101442.38;5079978;28;20041;-70
2022/10/17 05:00:17;;;;;;;70.45;20.27;;;;;;;8.72;69.53;101440.16;5081683;28;20318;-70
2022/10/17 05:02:42;;;;;;;23.80;12.88;;;;;;;8.66;68.83;101453.78;5080951;28;20043;-72
2022/10/17 05:05:08;;;;;;;40.08;16.38;;;;;;;8.36;67.40;101463.84;5080712;28;20048;-69
2022/10/17 05:07:34;;;;;;;31.58;15.77;;;;;;;7.86;68.22;101457.53;5080906;28;20344;-72
2022/10/17 05:09:59;;;;;;;33.67;15.38;;;;;;;7.77;70.72;101474.81;5080554;28;20060;-69
2022/10/17 05:12:25;;;;;;;26.23;14.18;;;;;;;7.82;70.62;101461.31;5080387;28;20032;-72
2022/10/17 05:14:51;;;;;;;28.67;13.68;;;;;;;7.77;72.48;101466.03;5080873;28;20096;-69
2022/10/17 05:17:16;;;;;;;29.63;14.40;;;;;;;7.88;72.14;101467.00;5078426;28;20024;-69
2022/10/17 05:19:42;;;;;;;286.13;60.58;;;;;;;8.01;72.27;101474.94;5071731;28;20029;-69
2022/10/17 05:22:07;;;;;;;79.65;24.00;;;;;;;8.11;72.69;101483.94;5070529;28;20139;-72
2022/10/17 05:24:33;;;;;;;44.08;16.52;;;;;;;8.30;72.91;101481.72;5071229;28;20031;-72
2022/10/17 05:26:59;;;;;;;29.63;14.75;;;;;;;8.49;71.89;101477.88;5073117;28;20024;-72
2022/10/17 05:29:24;;;;;;;34.15;15.05;;;;;;;8.68;71.51;101477.44;5073454;28;20054;-70
2022/10/17 05:31:50;;;;;;;25.65;13.93;;;;;;;8.57;72.40;101478.19;5070882;28;20234;-69
2022/10/17 05:34:15;;;;;;;56.97;20.23;;;;;;;8.78;72.17;101486.41;5073236;28;20075;-70
2022/10/17 05:36:41;;;;;;;33.33;16.08;;;;;;;9.06;70.98;101495.88;5071484;28;20059;-72
2022/10/17 05:39:07;;;;;;;36.85;14.50;;;;;;;9.28;70.63;101503.94;5073518;28;20023;-72
2022/10/17 05:41:33;;;;;;;28.88;14.77;;;;;;;9.18;71.59;101495.81;5073284;28;20033;-72
2022/10/17 05:43:59;;;;;;;28.05;14.77;;;;;;;8.99;73.12;101492.81;5073045;28;20065;-68
2022/10/17 05:46:24;;;;;;;33.30;14.20;;;;;;;9.22;72.97;101497.28;5072808;28;20040;-68
2022/10/17 05:48:50;;;;;;;29.95;15.05;;;;;;;9.52;72.47;101498.69;5071288;28;20254;-70
2022/10/17 05:51:15;;;;;;;34.03;14.93;;;;;;;9.54;72.73;101494.97;5072829;28;20048;-68
2022/10/17 05:53:41;;;;;;;24.85;13.38;;;;;;;10.06;71.35;101501.69;5074677;28;20060;-70
2022/10/17 05:56:09;;;;;;;23.90;12.00;;;;;;;10.49;68.92;101503.75;5069525;28;20345;-70
2022/10/17 05:58:35;;;;;;;27.63;12.80;;;;;;;10.72;67.87;101520.50;5069766;28;20055;-70
2022/10/17 06:01:03;;;;;;;75.43;23.42;;;;;;;11.17;65.30;101522.16;5067867;28;20338;-72
2022/10/17 06:03:30;;;;;;;28.63;14.32;;;;;;;11.33;65.66;101513.81;5075009;28;20284;-72
2022/10/17 06:05:55;;;;;;;21.10;11.32;;;;;;;11.24;65.75;101509.25;5071630;28;20059;-70
2022/10/17 06:08:21;;;;;;;18.88;10.02;;;;;;;11.33;65.46;101497.06;5074645;28;20048;-70
2022/10/17 06:10:48;;;;;;;19.15;10.80;;;;;;;11.06;66.19;101516.03;5071646;28;20048;-70
2022/10/17 06:13:15;;;;;;;19.05;10.82;;;;;;;11.17;66.61;101513.38;5071876;28;20026;-73
2022/10/17 06:15:41;;;;;;;51.20;18.52;;;;;;;11.31;65.84;101512.25;5070182;28;20024;-70
2022/10/17 06:18:06;;;;;;;28.25;12.82;;;;;;;11.45;65.93;101525.28;5073589;28;20032;-70
2022/10/17 06:20:32;;;;;;;19.30;10.43;;;;;;;11.72;65.48;101538.09;5070493;28;20031;-72
2022/10/17 06:22:58;;;;;;;18.45;10.98;;;;;;;12.15;63.00;101546.03;5070788;28;20048;-70
2022/10/17 06:25:24;;;;;;;18.52;9.80;;;;;;;12.26;63.17;101532.72;5073272;28;20097;-71
2022/10/17 06:27:50;;;;;;;17.40;9.90;;;;;;;12.19;62.99;101528.88;5076163;28;20105;-71
2022/10/17 06:30:16;;;;;;;18.70;9.48;;;;;;;12.43;63.17;101541.91;5076018;28;21459;-70
2022/10/17 06:32:41;;;;;;;32.28;15.50;;;;;;;12.66;62.36;101542.63;5076688;28;20046;-70
2022/10/17 06:35:07;;;;;;;26.48;10.82;;;;;;;12.59;62.57;101550.28;5077247;28;20051;-70
2022/10/17 06:37:34;;;;;;;23.80;10.57;;;;;;;13.08;61.95;101543.38;5075423;28;20040;-73
2022/10/17 06:39:59;;;;;;;20.33;10.02;;;;;;;13.20;61.58;101550.31;5074086;28;20078;-73
2022/10/17 06:42:25;;;;;;;27.02;13.00;;;;;;;13.09;61.45;101550.38;5079387;28;20028;-70
2022/10/17 06:44:50;;;;;;;20.75;11.77;;;;;;;12.85;62.01;101555.16;5075884;28;20062;-73
2022/10/17 06:47:16;;;;;;;26.00;11.38;;;;;;;13.00;61.93;101540.53;5078185;28;20032;-70
2022/10/17 06:49:41;;;;;;;17.05;10.05;;;;;;;13.24;61.88;101548.22;5083080;28;20037;-73
2022/10/17 06:52:07;;;;;;;18.48;9.63;;;;;;;13.60;61.01;101547.63;5083985;28;20043;-70
2022/10/17 06:54:32;;;;;;;20.00;10.32;;;;;;;13.65;60.51;101542.75;5083329;28;20206;-73
2022/10/17 06:56:58;;;;;;;22.50;9.73;;;;;;;13.73;60.19;101553.53;5083532;28;20039;-68
2022/10/17 06:59:23;;;;;;;20.13;9.93;;;;;;;13.88;59.58;101550.47;5083116;28;20032;-68
2022/10/17 07:01:49;;;;;;;17.35;10.15;;;;;;;13.98;59.01;101546.81;5083569;28;20040;-68
2022/10/17 07:04:15;;;;;;;18.65;11.30;;;;;;;13.97;59.68;101547.81;5083217;28;20041;-68
2022/10/17 07:06:40;;;;;;;19.65;10.00;;;;;;;14.29;58.71;101549.31;5081727;28;20039;-70
2022/10/17 07:09:06;;;;;;;28.27;10.63;;;;;;;14.42;58.75;101555.22;5083193;28;20318;-71
2022/10/17 07:11:33;;;;;;;18.10;9.60;;;;;;;14.46;57.67;101559.28;5082932;28;20242;-68
2022/10/17 07:13:59;;;;;;;18.10;9.85;;;;;;;14.49;57.62;101548.34;5082350;28;20028;-71
2022/10/17 07:16:25;;;;;;;19.05;10.10;;;;;;;14.30;58.48;101557.19;5082244;28;20029;-70
2022/10/17 07:18:53;;;;;;;19.30;10.00;;;;;;;14.37;58.32;101562.78;5083048;28;20040;-72
2022/10/17 07:21:18;;;;;;;26.70;13.60;;;;;;;14.59;57.67;101559.84;5081979;28;20391;-72
2022/10/17 07:23:44;;;;;;;17.98;9.95;;;;;;;14.78;57.46;101560.78;5083313;28;20037;-72
2022/10/17 07:26:14;;;;;;;20.25;9.90;;;;;;;14.89;57.10;101574.78;5082442;28;20036;-69
2022/10/17 07:28:42;;;;;;;24.20;11.63;;;;;;;14.53;58.33;101570.22;5082931;28;20322;-72
2022/10/17 07:31:11;;;;;;;27.48;12.43;;;;;;;14.91;57.44;101564.81;5082810;28;20040;-69
2022/10/17 07:33:37;;;;;;;24.10;10.55;;;;;;;15.42;55.05;101571.47;5082825;28;20655;-72
2022/10/17 07:36:04;;;;;;;28.17;10.75;;;;;;;15.34;55.86;101572.19;5082742;28;20319;-72
2022/10/17 07:38:30;;;;;;;20.30;8.63;;;;;;;15.59;54.83;101572.50;5087914;28;20032;-68
2022/10/17 07:41:00;;;;;;;14.32;8.50;;;;;;;15.64;53.95;101575.59;5081147;28;20029;-72
2022/10/17 07:43:27;;;;;;;14.48;8.48;;;;;;;15.92;53.03;101569.22;5081668;28;20214;-73
2022/10/17 07:45:53;;;;;;;27.20;9.13;;;;;;;15.90;53.11;101560.50;5081389;28;20314;-72
2022/10/17 07:48:20;;;;;;;15.35;9.27;;;;;;;16.07;52.28;101572.19;5082424;28;20318;-67
2022/10/17 07:50:46;;;;;;;18.45;9.10;;;;;;;16.19;52.26;101562.94;5081538;28;20380;-72
2022/10/17 07:53:12;;;;;;;17.08;9.15;;;;;;;16.23;52.24;101563.47;5082689;28;20028;-70
2022/10/17 07:55:39;;;;;;;15.60;9.18;;;;;;;16.11;52.60;101562.88;5083587;28;20062;-71
2022/10/17 07:58:05;;;;;;;18.70;9.15;;;;;;;16.23;52.08;101544.75;5082351;28;20253;-68
2022/10/17 08:00:30;;;;;;;17.20;8.65;;;;;;;16.30;52.33;101559.19;5081256;28;20024;-70
2022/10/17 08:02:56;;;;;;;22.17;9.13;;;;;;;16.62;51.47;101553.22;5080895;28;20226;-70
2022/10/17 08:05:21;;;;;;;17.48;8.32;;;;;;;16.63;51.01;101559.41;5082626;28;20044;-67
2022/10/17 08:07:47;;;;;;;17.15;7.72;;;;;;;16.72;51.15;101548.69;5082469;28;20032;-67
2022/10/17 08:10:14;;;;;;;13.20;7.50;;;;;;;16.84;50.64;101547.41;5081472;28;20036;-69
2022/10/17 08:12:39;;;;;;;14.27;7.72;;;;;;;16.92;49.87;101546.63;5082329;28;20033;-72
2022/10/17 08:15:07;;;;;;;17.63;7.97;;;;;;;16.84;50.40;101547.41;5082535;28;20047;-69
2022/10/17 08:17:37;;;;;;;13.02;7.80;;;;;;;16.91;49.82;101542.25;5081936;28;20036;-68
2022/10/17 08:20:04;;;;;;;12.20;7.25;;;;;;;17.32;49.03;101547.78;5082413;28;20099;-71
2022/10/17 08:22:30;;;;;;;12.38;6.97;;;;;;;17.22;48.68;101537.22;5082055;28;20046;-69
2022/10/17 08:24:55;;;;;;;15.13;7.15;;;;;;;17.30;48.29;101552.47;5081376;28;20036;-68
2022/10/17 08:27:23;;;;;;;15.30;7.45;;;;;;;17.32;48.31;101551.31;5082064;28;20073;-68
2022/10/17 08:29:52;;;;;;;14.18;7.57;;;;;;;17.32;47.91;101545.94;5081881;28;20033;-69
2022/10/17 08:32:23;;;;;;;16.02;8.75;;;;;;;17.09;48.79;101552.88;5091511;28;20024;-68
2022/10/17 08:34:49;;;;;;;17.67;8.30;;;;;;;17.20;48.62;101548.06;5082210;28;20092;-72
2022/10/17 08:37:15;;;;;;;11.60;7.05;;;;;;;17.20;49.40;101549.91;5080795;28;20089;-68
2022/10/17 08:39:41;;;;;;;19.85;7.18;;;;;;;17.48;48.03;101542.47;5081616;28;20044;-68
2022/10/17 08:42:24;;;;;;;25.67;7.65;;;;;;;17.70;47.46;101549.97;5081944;28;20062;-68
2022/10/17 08:45:05;;;;;;;10.70;6.50;;;;;;;17.71;46.94;101548.13;5081977;28;20337;-72
2022/10/17 08:47:41;;;;;;;16.60;7.45;;;;;;;17.65;47.38;101536.16;5079979;28;20042;-72
2022/10/17 08:50:14;;;;;;;11.00;6.60;;;;;;;17.74;47.43;101545.09;5080434;28;20024;-72
2022/10/17 08:52:54;;;;;;;12.77;6.72;;;;;;;18.10;45.82;101541.13;5081940;28;20033;-69
2022/10/17 08:55:31;;;;;;;14.05;7.07;;;;;;;18.13;45.74;101535.41;5081444;28;20045;-72
2022/10/17 08:57:56;;;;;;;10.93;7.03;;;;;;;18.12;45.04;101540.94;5081441;28;20367;-72
2022/10/17 09:00:23;;;;;;;13.68;6.88;;;;;;;18.19;45.17;101537.44;5081707;28;20095;-69
2022/10/17 09:02:48;;;;;;;13.30;7.38;;;;;;;18.27;44.34;101541.94;5081439;28;20352;-72
2022/10/17 09:05:32;;;;;;;15.65;6.63;;;;;;;18.17;44.80;101539.44;5081486;28;20033;-72
2022/10/17 09:08:07;;;;;;;;;;;;;;;18.37;43.57;101536.41;5082487;28;20096;-69
2022/10/17 09:10:55;;;;;;;15.32;7.57;;;;;;;18.01;45.03;101530.56;5080969;28;20172;-69
2022/10/17 09:13:36;;;;;;;19.00;8.52;;;;;;;17.81;45.04;101522.00;5081582;28;20326;-69
2022/10/17 09:16:11;;;;;;;22.10;7.68;;;;;;;17.56;46.01;101529.94;5080114;28;20107;-68
2022/10/17 09:18:41;;;;;;;10.05;6.32;;;;;;;17.92;44.19;101523.53;5081233;28;20025;-73
2022/10/17 09:21:35;;;;;;;10.55;6.20;;;;;;;18.24;43.00;101517.31;5081187;28;20036;-73
2022/10/17 09:24:09;;;;;;;17.85;6.88;;;;;;;18.11;43.09;101517.84;5078987;28;20268;-73
2022/10/17 09:26:35;;;;;;;13.73;5.85;;;;;;;18.04;42.43;101514.16;5081060;28;20036;-72
2022/10/17 09:29:01;;;;;;;12.25;5.88;;;;;;;18.04;41.42;101520.34;5080919;28;20043;-69
2022/10/17 09:31:34;;;;;;;9.88;5.82;;;;;;;17.49;42.06;101507.50;5081179;28;20032;-69
2022/10/17 09:34:01;;;;;;;11.73;5.97;;;;;;;17.73;41.79;101511.28;5081118;28;20025;-73
2022/10/17 09:36:31;;;;;;;17.75;6.18;;;;;;;17.76;42.33;101511.78;5081289;28;20032;-73
2022/10/17 09:38:59;;;;;;;11.52;5.60;;;;;;;17.81;42.54;101509.44;5081341;28;20024;-72
2022/10/17 09:41:55;;;;;;;13.70;6.45;;;;;;;17.74;41.86;101510.28;5080760;28;20040;-68
2022/10/17 09:44:30;;;;;;;11.65;5.15;;;;;;;17.62;41.89;101508.84;5081343;28;20032;-68
2022/10/17 09:47:10;;;;;;;11.15;5.28;;;;;;;17.77;41.81;101507.28;5081334;28;20336;-72
2022/10/17 09:49:41;;;;;;;12.18;5.45;;;;;;;17.64;42.66;101496.97;5079706;28;20024;-73
2022/10/17 09:52:17;;;;;;;8.27;4.10;;;;;;;17.81;38.90;101501.41;5081443;28;20097;-72
2022/10/17 09:54:56;;;;;;;15.07;4.78;;;;;;;17.64;38.07;101502.34;5080836;28;20054;-68
2022/10/17 09:57:21;;;;;;;9.45;4.32;;;;;;;17.73;38.67;101504.09;5079615;28;20040;-69
2022/10/17 10:00:00;;;;;;;9.73;4.60;;;;;;;17.74;37.50;101488.84;5083365;28;20155;-72
2022/10/17 10:02:28;;;;;;;8.85;4.07;;;;;;;17.65;37.78;101501.34;5084485;28;20036;-72
2022/10/17 10:05:15;;;;;;;12.35;4.35;;;;;;;17.70;38.35;101488.34;5084413;28;20069;-69
2022/10/17 10:07:40;;;;;;;5.50;3.78;;;;;;;17.70;36.28;101476.78;5096076;28;20272;-72
2022/10/17 10:10:23;;;;;;;11.02;3.85;;;;;;;17.73;36.87;101479.97;5084243;28;20045;-72
2022/10/17 10:13:05;;;;;;;11.15;3.85;;;;;;;18.06;36.57;101479.97;5084236;28;20660;-72
2022/10/17 10:15:40;;;;;;;8.20;4.68;;;;;;;17.92;38.28;101473.44;5084872;28;20016;-72
2022/10/17 10:18:23;;;;;;;7.03;4.00;;;;;;;18.03;38.42;101469.59;5084252;28;20108;-69
2022/10/17 10:21:21;;;;;;;15.73;3.93;;;;;;;18.09;38.78;101469.75;5084739;28;20044;-73
2022/10/17 10:24:08;;;;;;;4.50;2.90;;;;;;;18.14;38.86;101464.72;5084161;28;20028;-73
2022/10/17 10:26:37;;;;;;;8.20;3.80;;;;;;;18.16;39.04;101460.03;5082890;28;20035;-69
2022/10/17 10:29:18;;;;;;;6.07;3.50;;;;;;;18.41;37.27;101452.75;5083942;28;20086;-69
2022/10/17 10:31:43;;;;;;;5.72;3.55;;;;;;;18.36;39.25;101441.72;5084186;28;20048;-69
2022/10/17 10:34:30;;;;;;;8.23;3.00;;;;;;;18.47;38.92;101448.56;5084042;28;20025;-70
2022/10/17 10:36:55;;;;;;;10.32;3.05;;;;;;;18.44;38.40;101446.22;5084808;28;20037;-72
2022/10/17 10:39:36;;;;;;;5.90;3.08;;;;;;;18.40;38.78;101444.88;5083971;28;20223;-72
2022/10/17 10:42:05;;;;;;;6.28;2.92;;;;;;;18.30;39.53;101442.41;5083910;28;20036;-72
2022/10/17 10:44:32;;;;;;;9.45;3.25;;;;;;;18.35;40.17;101439.19;5084049;28;20091;-69
2022/10/17 10:47:18;;;;;;;6.70;2.45;;;;;;;18.42;39.54;101437.50;5083857;28;20039;-72
2022/10/17 10:49:44;;;;;;;4.93;2.70;;;;;;;18.39;38.03;101427.13;5083813;28;20031;-72
2022/10/17 10:52:24;;;;;;;4.60;2.47;;;;;;;18.61;38.84;101431.78;5082813;28;20036;-72
2022/10/17 10:55:13;;;;;;;11.43;3.20;;;;;;;18.61;38.61;101430.91;5083684;28;20040;-73
2022/10/17 10:57:39;;;;;;;9.35;2.80;;;;;;;18.64;37.68;101428.75;5083532;28;20043;-72
2022/10/17 11:00:18;;;;;;;7.15;2.95;;;;;;;18.53;38.34;101431.78;5083799;28;20028;-69
2022/10/17 11:02:48;;;;;;;8.55;3.10;;;;;;;18.39;38.06;101425.28;5083626;28;20036;-72
2022/10/17 11:05:29;;;;;;;6.15;3.30;;;;;;;18.50;37.74;101429.44;5083806;28;20028;-72
2022/10/17 11:08:04;;;;;;;4.70;3.08;;;;;;;18.46;37.41;101430.78;5083731;28;20032;-72
2022/10/17 11:11:05;;;;;;;8.43;3.22;;;;;;;18.51;38.55;101418.53;5082677;28;20294;-72
2022/10/17 11:13:46;;;;;;;4.50;2.70;;;;;;;18.38;37.94;101423.59;5083646;28;20314;-72
2022/10/17 11:16:29;;;;;;;5.43;2.92;;;;;;;18.19;38.29;101411.41;5083363;28;20036;-72
2022/10/17 11:19:24;;;;;;;6.85;2.88;;;;;;;18.15;38.92;101407.41;5083282;28;20098;-69
2022/10/17 11:21:52;;;;;;;;;;;;;;;18.43;38.00;101412.34;5084090;28;20314;-72
2022/10/17 11:24:28;;;;;;;6.95;3.00;;;;;;;18.43;38.05;101412.34;5083124;28;19912;-69
2022/10/17 11:27:03;;;;;;;10.68;3.00;;;;;;;18.43;38.08;101407.00;5082955;28;20041;-69
2022/10/17 11:29:34;;;;;;;5.72;2.53;;;;;;;18.27;37.55;101393.63;5083222;28;20318;-73
2022/10/17 11:32:23;;;;;;;7.13;3.03;;;;;;;18.54;37.70;101397.72;5082915;28;20211;-72
2022/10/17 11:34:55;;;;;;;8.07;2.80;;;;;;;18.26;39.21;101379.41;5083170;28;20108;-72